sensor_id;sensor_type;location;lat;lon;timestamp;pressure;altitude;pressure_sealevel;temperature;humidity
20825;BME280;10573;50.936;6.978;2023-04-27T00:00:35;101518.44;;;10.72;43.86
20825;BME280;10573;50.936;6.978;2023-04-27T00:03:00;101524.66;;;10.63;44.02
20825;BME280;10573;50.936;6.978;2023-04-27T00:05:29;101529.63;;;10.58;44.63
20825;BME280;10573;50.936;6.978;2023-04-27T00:07:55;101528.63;;;10.59;44.71
20825;BME280;10573;50.936;6.978;2023-04-27T00:10:20;101524.28;;;10.34;44.81
20825;BME280;10573;50.936;6.978;2023-04-27T00:12:45;101524.16;;;10.24;44.94
20825;BME280;10573;50.936;6.978;2023-04-27T00:15:11;101524.69;;;10.52;44.94
20825;BME280;10573;50.936;6.978;2023-04-27T00:17:36;101523.44;;;10.56;44.75
20825;BME280;10573;50.936;6.978;2023-04-27T00:20:01;101527.75;;;10.70;44.35
20825;BME280;10573;50.936;6.978;2023-04-27T00:22:29;101525.09;;;10.91;44.73
20825;BME280;10573;50.936;6.978;2023-04-27T00:24:54;101530.34;;;10.71;44.71
20825;BME280;10573;50.936;6.978;2023-04-27T00:27:19;101528.97;;;10.77;45.21
20825;BME280;10573;50.936;6.978;2023-04-27T00:29:45;101529.22;;;10.74;44.99
20825;BME280;10573;50.936;6.978;2023-04-27T00:32:10;101526.88;;;10.69;44.88
20825;BME280;10573;50.936;6.978;2023-04-27T00:34:35;101535.78;;;10.83;45.00
20825;BME280;10573;50.936;6.978;2023-04-27T00:37:01;101538.28;;;9.95;45.95
20825;BME280;10573;50.936;6.978;2023-04-27T00:39:27;101541.72;;;9.97;46.29
20825;BME280;10573;50.936;6.978;2023-04-27T00:41:52;101530.59;;;9.89;46.51
20825;BME280;10573;50.936;6.978;2023-04-27T00:44:24;101530.47;;;10.13;46.47
20825;BME280;10573;50.936;6.978;2023-04-27T00:46:50;101528.78;;;10.35;45.87
20825;BME280;10573;50.936;6.978;2023-04-27T00:49:16;101532.84;;;10.40;45.79
20825;BME280;10573;50.936;6.978;2023-04-27T00:51:41;101531.97;;;10.29;46.09
20825;BME280;10573;50.936;6.978;2023-04-27T00:54:06;101531.88;;;10.53;46.08
20825;BME280;10573;50.936;6.978;2023-04-27T00:56:32;101536.78;;;10.14;46.47
20825;BME280;10573;50.936;6.978;2023-04-27T00:58:58;101530.97;;;10.30;46.45
20825;BME280;10573;50.936;6.978;2023-04-27T01:01:23;101523.94;;;10.16;46.77
20825;BME280;10573;50.936;6.978;2023-04-27T01:03:48;101531.34;;;10.25;46.49
20825;BME280;10573;50.936;6.978;2023-04-27T01:06:14;101527.13;;;10.10;47.19
20825;BME280;10573;50.936;6.978;2023-04-27T01:08:39;101525.69;;;10.39;46.99
20825;BME280;10573;50.936;6.978;2023-04-27T01:11:05;101527.34;;;9.72;47.86
20825;BME280;10573;50.936;6.978;2023-04-27T01:13:30;101530.66;;;9.65;48.11
20825;BME280;10573;50.936;6.978;2023-04-27T01:15:55;101537.03;;;10.11;47.80
20825;BME280;10573;50.936;6.978;2023-04-27T01:18:21;101533.81;;;10.05;47.26
20825;BME280;10573;50.936;6.978;2023-04-27T01:20:46;101539.00;;;9.86;47.52
20825;BME280;10573;50.936;6.978;2023-04-27T01:23:12;101535.31;;;9.98;47.83
20825;BME280;10573;50.936;6.978;2023-04-27T01:25:37;101534.03;;;9.80;48.01
20825;BME280;10573;50.936;6.978;2023-04-27T01:28:02;101535.69;;;10.05;47.98
20825;BME280;10573;50.936;6.978;2023-04-27T01:30:28;101534.50;;;9.73;48.34
20825;BME280;10573;50.936;6.978;2023-04-27T01:32:54;101540.25;;;9.93;48.20
20825;BME280;10573;50.936;6.978;2023-04-27T01:35:19;101541.63;;;9.52;48.63
20825;BME280;10573;50.936;6.978;2023-04-27T01:37:45;101536.50;;;9.71;48.50
20825;BME280;10573;50.936;6.978;2023-04-27T01:40:10;101535.25;;;9.29;49.20
20825;BME280;10573;50.936;6.978;2023-04-27T01:42:36;101532.47;;;9.53;48.81
20825;BME280;10573;50.936;6.978;2023-04-27T01:45:01;101536.69;;;9.46;49.18
20825;BME280;10573;50.936;6.978;2023-04-27T01:47:27;101541.59;;;9.40;49.46
20825;BME280;10573;50.936;6.978;2023-04-27T01:49:52;101537.25;;;9.38;49.20
20825;BME280;10573;50.936;6.978;2023-04-27T01:52:17;101541.75;;;9.15;49.92
20825;BME280;10573;50.936;6.978;2023-04-27T01:54:43;101549.25;;;9.35;49.18
20825;BME280;10573;50.936;6.978;2023-04-27T01:57:08;101549.66;;;9.18;49.68
20825;BME280;10573;50.936;6.978;2023-04-27T01:59:33;101540.41;;;9.20;49.85
20825;BME280;10573;50.936;6.978;2023-04-27T02:01:58;101544.47;;;9.15;49.78
20825;BME280;10573;50.936;6.978;2023-04-27T02:04:24;101537.84;;;9.30;49.89
20825;BME280;10573;50.936;6.978;2023-04-27T02:06:49;101549.06;;;9.61;49.37
20825;BME280;10573;50.936;6.978;2023-04-27T02:09:15;101546.72;;;9.56;49.53
20825;BME280;10573;50.936;6.978;2023-04-27T02:11:40;101544.31;;;9.40;49.62
20825;BME280;10573;50.936;6.978;2023-04-27T02:14:05;101552.34;;;9.06;50.17
20825;BME280;10573;50.936;6.978;2023-04-27T02:16:31;101547.47;;;9.23;50.39
20825;BME280;10573;50.936;6.978;2023-04-27T02:18:56;101548.97;;;8.79;51.08
20825;BME280;10573;50.936;6.978;2023-04-27T02:21:22;101552.41;;;9.29;50.40
20825;BME280;10573;50.936;6.978;2023-04-27T02:23:48;101553.03;;;8.97;50.73
20825;BME280;10573;50.936;6.978;2023-04-27T02:26:20;101543.28;;;8.82;51.01
20825;BME280;10573;50.936;6.978;2023-04-27T02:28:46;101549.53;;;8.95;51.13
20825;BME280;10573;50.936;6.978;2023-04-27T02:31:12;101547.72;;;8.96;51.19
20825;BME280;10573;50.936;6.978;2023-04-27T02:33:38;101543.56;;;8.66;51.44
20825;BME280;10573;50.936;6.978;2023-04-27T02:36:04;101551.97;;;8.87;51.46
20825;BME280;10573;50.936;6.978;2023-04-27T02:38:29;101547.66;;;8.71;51.78
20825;BME280;10573;50.936;6.978;2023-04-27T02:40:54;101558.38;;;8.23;52.32
20825;BME280;10573;50.936;6.978;2023-04-27T02:43:20;101556.34;;;8.77;51.52
20825;BME280;10573;50.936;6.978;2023-04-27T02:45:45;101554.28;;;8.80;51.50
20825;BME280;10573;50.936;6.978;2023-04-27T02:48:11;101549.88;;;8.66;51.78
20825;BME280;10573;50.936;6.978;2023-04-27T02:50:42;101553.25;;;8.44;52.29
20825;BME280;10573;50.936;6.978;2023-04-27T02:53:08;101539.97;;;8.65;51.43
20825;BME280;10573;50.936;6.978;2023-04-27T02:55:34;101533.91;;;8.62;51.75
20825;BME280;10573;50.936;6.978;2023-04-27T02:57:59;101530.59;;;8.45;52.14
20825;BME280;10573;50.936;6.978;2023-04-27T03:00:24;101533.28;;;8.32;52.55
20825;BME280;10573;50.936;6.978;2023-04-27T03:02:50;101532.06;;;8.36;52.54
20825;BME280;10573;50.936;6.978;2023-04-27T03:05:15;101530.03;;;8.53;51.77
20825;BME280;10573;50.936;6.978;2023-04-27T03:07:40;101537.00;;;8.81;51.90
20825;BME280;10573;50.936;6.978;2023-04-27T03:10:06;101524.84;;;8.74;51.58
20825;BME280;10573;50.936;6.978;2023-04-27T03:12:31;101525.13;;;8.32;52.29
20825;BME280;10573;50.936;6.978;2023-04-27T03:14:57;101526.88;;;8.33;52.45
20825;BME280;10573;50.936;6.978;2023-04-27T03:17:23;101535.50;;;8.14;53.18
20825;BME280;10573;50.936;6.978;2023-04-27T03:19:48;101531.38;;;8.09;53.26
20825;BME280;10573;50.936;6.978;2023-04-27T03:22:14;101535.06;;;7.95;53.27
20825;BME280;10573;50.936;6.978;2023-04-27T03:24:39;101537.47;;;7.73;53.88
20825;BME280;10573;50.936;6.978;2023-04-27T03:27:05;101543.53;;;7.64;54.41
20825;BME280;10573;50.936;6.978;2023-04-27T03:29:30;101528.22;;;7.89;53.60
20825;BME280;10573;50.936;6.978;2023-04-27T03:31:55;101534.09;;;7.70;54.13
20825;BME280;10573;50.936;6.978;2023-04-27T03:34:21;101531.91;;;7.75;53.69
20825;BME280;10573;50.936;6.978;2023-04-27T03:36:47;101532.16;;;7.98;53.23
20825;BME280;10573;50.936;6.978;2023-04-27T03:39:13;101530.59;;;8.06;53.37
20825;BME280;10573;50.936;6.978;2023-04-27T03:41:38;101537.13;;;7.91;53.53
20825;BME280;10573;50.936;6.978;2023-04-27T03:44:03;101528.34;;;8.00;53.54
20825;BME280;10573;50.936;6.978;2023-04-27T03:46:28;101539.72;;;7.80;54.02
20825;BME280;10573;50.936;6.978;2023-04-27T03:48:54;101530.19;;;8.13;53.25
20825;BME280;10573;50.936;6.978;2023-04-27T03:51:19;101531.91;;;7.88;53.59
20825;BME280;10573;50.936;6.978;2023-04-27T03:53:45;101545.16;;;7.80;53.53
20825;BME280;10573;50.936;6.978;2023-04-27T03:56:10;101540.03;;;7.88;53.39
20825;BME280;10573;50.936;6.978;2023-04-27T03:58:35;101536.50;;;8.00;52.92
20825;BME280;10573;50.936;6.978;2023-04-27T04:01:01;101538.41;;;7.85;53.81
20825;BME280;10573;50.936;6.978;2023-04-27T04:03:26;101544.50;;;7.63;54.09
20825;BME280;10573;50.936;6.978;2023-04-27T04:05:51;101550.09;;;7.47;54.31
20825;BME280;10573;50.936;6.978;2023-04-27T04:08:16;101553.38;;;7.65;54.69
20825;BME280;10573;50.936;6.978;2023-04-27T04:10:42;101556.31;;;7.62;54.37
20825;BME280;10573;50.936;6.978;2023-04-27T04:13:07;101555.06;;;7.41;54.68
20825;BME280;10573;50.936;6.978;2023-04-27T04:15:32;101551.00;;;7.61;54.41
20825;BME280;10573;50.936;6.978;2023-04-27T04:17:58;101557.50;;;7.58;54.41
20825;BME280;10573;50.936;6.978;2023-04-27T04:20:23;101565.06;;;7.53;54.13
20825;BME280;10573;50.936;6.978;2023-04-27T04:22:48;101567.34;;;7.46;54.49
20825;BME280;10573;50.936;6.978;2023-04-27T04:25:13;101566.53;;;7.31;54.71
20825;BME280;10573;50.936;6.978;2023-04-27T04:27:39;101561.44;;;7.80;54.40
20825;BME280;10573;50.936;6.978;2023-04-27T04:30:05;101567.78;;;7.53;54.38
20825;BME280;10573;50.936;6.978;2023-04-27T04:32:31;101577.16;;;7.34;55.12
20825;BME280;10573;50.936;6.978;2023-04-27T04:34:57;101575.56;;;7.45;54.56
20825;BME280;10573;50.936;6.978;2023-04-27T04:37:25;101574.16;;;7.52;54.47
20825;BME280;10573;50.936;6.978;2023-04-27T04:39:50;101566.00;;;7.79;54.14
20825;BME280;10573;50.936;6.978;2023-04-27T04:42:16;101573.81;;;7.97;53.81
20825;BME280;10573;50.936;6.978;2023-04-27T04:44:41;101583.00;;;7.68;54.02
20825;BME280;10573;50.936;6.978;2023-04-27T04:47:06;101574.03;;;7.81;54.01
20825;BME280;10573;50.936;6.978;2023-04-27T04:49:34;101578.69;;;7.92;53.74
20825;BME280;10573;50.936;6.978;2023-04-27T04:51:59;101578.44;;;7.69;54.23
20825;BME280;10573;50.936;6.978;2023-04-27T04:54:25;101575.31;;;7.75;54.36
20825;BME280;10573;50.936;6.978;2023-04-27T04:56:50;101570.97;;;7.72;54.26
20825;BME280;10573;50.936;6.978;2023-04-27T04:59:15;101576.13;;;7.50;54.71
20825;BME280;10573;50.936;6.978;2023-04-27T05:01:41;101576.69;;;7.68;54.73
20825;BME280;10573;50.936;6.978;2023-04-27T05:04:06;101582.91;;;7.83;54.31
20825;BME280;10573;50.936;6.978;2023-04-27T05:06:32;101586.13;;;7.49;54.82
20825;BME280;10573;50.936;6.978;2023-04-27T05:08:57;101590.94;;;7.71;54.26
20825;BME280;10573;50.936;6.978;2023-04-27T05:11:23;101593.09;;;7.66;54.24
20825;BME280;10573;50.936;6.978;2023-04-27T05:13:48;101597.81;;;7.50;54.91
20825;BME280;10573;50.936;6.978;2023-04-27T05:16:14;101598.09;;;7.72;54.84
20825;BME280;10573;50.936;6.978;2023-04-27T05:18:39;101604.66;;;7.55;54.86
20825;BME280;10573;50.936;6.978;2023-04-27T05:21:12;101600.31;;;7.53;54.94
20825;BME280;10573;50.936;6.978;2023-04-27T05:23:37;101591.44;;;7.64;55.01
20825;BME280;10573;50.936;6.978;2023-04-27T05:26:09;101591.34;;;7.65;54.44
20825;BME280;10573;50.936;6.978;2023-04-27T05:28:35;101599.72;;;7.88;55.02
20825;BME280;10573;50.936;6.978;2023-04-27T05:31:00;101595.50;;;8.10;54.27
20825;BME280;10573;50.936;6.978;2023-04-27T05:33:25;101597.72;;;8.04;54.27
20825;BME280;10573;50.936;6.978;2023-04-27T05:35:50;101599.84;;;8.12;53.87
20825;BME280;10573;50.936;6.978;2023-04-27T05:38:16;101600.50;;;8.42;53.44
20825;BME280;10573;50.936;6.978;2023-04-27T05:40:41;101599.31;;;8.20;54.03
20825;BME280;10573;50.936;6.978;2023-04-27T05:43:06;101603.31;;;8.27;53.71
20825;BME280;10573;50.936;6.978;2023-04-27T05:45:32;101610.63;;;8.52;53.22
20825;BME280;10573;50.936;6.978;2023-04-27T05:47:57;101612.91;;;8.46;53.27
20825;BME280;10573;50.936;6.978;2023-04-27T05:50:22;101614.97;;;8.55;53.30
20825;BME280;10573;50.936;6.978;2023-04-27T05:52:48;101621.72;;;8.62;52.82
20825;BME280;10573;50.936;6.978;2023-04-27T05:55:13;101620.28;;;8.69;52.82
20825;BME280;10573;50.936;6.978;2023-04-27T05:57:38;101612.59;;;9.00;52.15
20825;BME280;10573;50.936;6.978;2023-04-27T06:00:04;101612.75;;;9.10;52.28
20825;BME280;10573;50.936;6.978;2023-04-27T06:02:34;101617.25;;;9.22;51.37
20825;BME280;10573;50.936;6.978;2023-04-27T06:04:59;101615.97;;;9.28;51.45
20825;BME280;10573;50.936;6.978;2023-04-27T06:07:25;101622.81;;;9.45;51.08
20825;BME280;10573;50.936;6.978;2023-04-27T06:09:50;101624.81;;;9.43;51.55
20825;BME280;10573;50.936;6.978;2023-04-27T06:12:15;101624.59;;;9.82;50.52
20825;BME280;10573;50.936;6.978;2023-04-27T06:14:41;101616.38;;;9.70;49.87
20825;BME280;10573;50.936;6.978;2023-04-27T06:17:06;101620.06;;;9.58;50.07
20825;BME280;10573;50.936;6.978;2023-04-27T06:19:32;101622.31;;;9.64;49.65
20825;BME280;10573;50.936;6.978;2023-04-27T06:21:57;101626.81;;;9.77;49.77
20825;BME280;10573;50.936;6.978;2023-04-27T06:24:22;101629.09;;;9.94;49.49
20825;BME280;10573;50.936;6.978;2023-04-27T06:26:48;101626.38;;;9.94;49.85
20825;BME280;10573;50.936;6.978;2023-04-27T06:29:13;101625.00;;;10.00;49.45
20825;BME280;10573;50.936;6.978;2023-04-27T06:31:38;101622.66;;;10.06;49.03
20825;BME280;10573;50.936;6.978;2023-04-27T06:34:05;101625.66;;;10.15;49.11
20825;BME280;10573;50.936;6.978;2023-04-27T06:36:30;101622.72;;;10.29;48.84
20825;BME280;10573;50.936;6.978;2023-04-27T06:38:56;101627.72;;;10.35;48.42
20825;BME280;10573;50.936;6.978;2023-04-27T06:41:22;101620.50;;;10.34;48.48
20825;BME280;10573;50.936;6.978;2023-04-27T06:43:48;101627.72;;;10.35;47.99
20825;BME280;10573;50.936;6.978;2023-04-27T06:46:14;101621.28;;;10.59;47.76
20825;BME280;10573;50.936;6.978;2023-04-27T06:48:39;101621.25;;;10.82;47.04
20825;BME280;10573;50.936;6.978;2023-04-27T06:51:05;101624.97;;;10.81;47.30
20825;BME280;10573;50.936;6.978;2023-04-27T06:53:30;101628.94;;;10.88;46.83
20825;BME280;10573;50.936;6.978;2023-04-27T06:55:56;101623.22;;;11.02;46.68
20825;BME280;10573;50.936;6.978;2023-04-27T06:58:21;101622.47;;;11.00;46.20
20825;BME280;10573;50.936;6.978;2023-04-27T07:00:46;101621.41;;;11.35;45.54
20825;BME280;10573;50.936;6.978;2023-04-27T07:03:12;101614.97;;;11.36;44.88
20825;BME280;10573;50.936;6.978;2023-04-27T07:05:37;101602.72;;;11.52;45.00
20825;BME280;10573;50.936;6.978;2023-04-27T07:08:02;101606.63;;;10.94;45.49
20825;BME280;10573;50.936;6.978;2023-04-27T07:10:28;101614.06;;;11.47;45.84
20825;BME280;10573;50.936;6.978;2023-04-27T07:12:53;101604.03;;;11.69;45.56
20825;BME280;10573;50.936;6.978;2023-04-27T07:15:18;101606.69;;;11.59;45.24
20825;BME280;10573;50.936;6.978;2023-04-27T07:17:44;101599.94;;;12.17;43.86
20825;BME280;10573;50.936;6.978;2023-04-27T07:20:09;101602.41;;;12.20;43.73
20825;BME280;10573;50.936;6.978;2023-04-27T07:22:34;101604.81;;;12.44;43.16
20825;BME280;10573;50.936;6.978;2023-04-27T07:25:00;101603.03;;;12.64;42.33
20825;BME280;10573;50.936;6.978;2023-04-27T07:27:25;101601.47;;;12.40;42.55
20825;BME280;10573;50.936;6.978;2023-04-27T07:29:51;101598.28;;;12.35;42.04
20825;BME280;10573;50.936;6.978;2023-04-27T07:32:17;101596.13;;;12.08;41.85
20825;BME280;10573;50.936;6.978;2023-04-27T07:34:42;101598.88;;;12.39;42.72
20825;BME280;10573;50.936;6.978;2023-04-27T07:37:08;101601.09;;;12.45;42.05
20825;BME280;10573;50.936;6.978;2023-04-27T07:39:33;101610.16;;;12.46;42.09
20825;BME280;10573;50.936;6.978;2023-04-27T07:41:58;101596.66;;;12.95;40.97
20825;BME280;10573;50.936;6.978;2023-04-27T07:44:24;101585.03;;;13.12;40.06
20825;BME280;10573;50.936;6.978;2023-04-27T07:46:49;101587.94;;;13.20;39.88
20825;BME280;10573;50.936;6.978;2023-04-27T07:49:18;101587.97;;;13.40;40.06
20825;BME280;10573;50.936;6.978;2023-04-27T07:51:44;101585.53;;;13.66;39.88
20825;BME280;10573;50.936;6.978;2023-04-27T07:54:09;101589.56;;;13.62;39.23
20825;BME280;10573;50.936;6.978;2023-04-27T07:56:35;101581.94;;;13.36;39.22
20825;BME280;10573;50.936;6.978;2023-04-27T07:59:00;101586.22;;;13.68;38.06
20825;BME280;10573;50.936;6.978;2023-04-27T08:01:25;101582.19;;;13.92;37.96
20825;BME280;10573;50.936;6.978;2023-04-27T08:03:51;101584.00;;;14.21;37.52
20825;BME280;10573;50.936;6.978;2023-04-27T08:06:17;101593.41;;;13.30;38.26
20825;BME280;10573;50.936;6.978;2023-04-27T08:08:42;101586.53;;;13.85;39.02
20825;BME280;10573;50.936;6.978;2023-04-27T08:11:08;101585.09;;;13.81;38.06
20825;BME280;10573;50.936;6.978;2023-04-27T08:13:34;101580.13;;;13.16;38.00
20825;BME280;10573;50.936;6.978;2023-04-27T08:16:00;101569.72;;;13.00;37.10
20825;BME280;10573;50.936;6.978;2023-04-27T08:18:25;101574.19;;;12.81;37.68
20825;BME280;10573;50.936;6.978;2023-04-27T08:20:51;101574.59;;;12.76;38.25
20825;BME280;10573;50.936;6.978;2023-04-27T08:23:16;101576.94;;;12.91;37.67
20825;BME280;10573;50.936;6.978;2023-04-27T08:25:42;101563.19;;;13.61;37.43
20825;BME280;10573;50.936;6.978;2023-04-27T08:28:07;101564.31;;;13.09;36.80
20825;BME280;10573;50.936;6.978;2023-04-27T08:30:32;101570.31;;;13.03;35.95
20825;BME280;10573;50.936;6.978;2023-04-27T08:32:58;101560.00;;;13.75;35.81
20825;BME280;10573;50.936;6.978;2023-04-27T08:35:23;101562.88;;;13.64;35.77
20825;BME280;10573;50.936;6.978;2023-04-27T08:37:48;101561.84;;;14.42;36.02
20825;BME280;10573;50.936;6.978;2023-04-27T08:40:14;101562.56;;;13.87;36.17
20825;BME280;10573;50.936;6.978;2023-04-27T08:42:39;101563.03;;;14.95;35.50
20825;BME280;10573;50.936;6.978;2023-04-27T08:45:06;101548.91;;;15.98;34.09
20825;BME280;10573;50.936;6.978;2023-04-27T08:47:32;101542.78;;;16.39;33.50
20825;BME280;10573;50.936;6.978;2023-04-27T08:49:58;101544.25;;;17.10;31.45
20825;BME280;10573;50.936;6.978;2023-04-27T08:52:23;101545.38;;;16.83;32.32
20825;BME280;10573;50.936;6.978;2023-04-27T08:54:48;101548.28;;;17.49;30.08
20825;BME280;10573;50.936;6.978;2023-04-27T08:57:14;101547.72;;;17.29;31.46
20825;BME280;10573;50.936;6.978;2023-04-27T08:59:40;101554.63;;;17.50;31.50
20825;BME280;10573;50.936;6.978;2023-04-27T09:02:05;101549.75;;;18.26;29.28
20825;BME280;10573;50.936;6.978;2023-04-27T09:04:37;101545.00;;;17.54;30.08
20825;BME280;10573;50.936;6.978;2023-04-27T09:07:13;101545.34;;;17.51;31.32
20825;BME280;10573;50.936;6.978;2023-04-27T09:09:38;101537.09;;;17.92;30.23
20825;BME280;10573;50.936;6.978;2023-04-27T09:12:16;101542.38;;;18.26;29.48
20825;BME280;10573;50.936;6.978;2023-04-27T09:14:43;101535.72;;;18.92;29.21
20825;BME280;10573;50.936;6.978;2023-04-27T09:17:08;101535.28;;;18.32;29.55
20825;BME280;10573;50.936;6.978;2023-04-27T09:19:33;101529.59;;;18.65;28.91
20825;BME280;10573;50.936;6.978;2023-04-27T09:22:02;101534.13;;;19.67;26.65
20825;BME280;10573;50.936;6.978;2023-04-27T09:24:28;101532.28;;;18.90;29.00
20825;BME280;10573;50.936;6.978;2023-04-27T09:26:53;101527.88;;;19.04;29.14
20825;BME280;10573;50.936;6.978;2023-04-27T09:29:19;101521.56;;;19.88;27.01
20825;BME280;10573;50.936;6.978;2023-04-27T09:31:44;101535.31;;;19.03;28.24
20825;BME280;10573;50.936;6.978;2023-04-27T09:34:09;101537.78;;;16.08;31.17
20825;BME280;10573;50.936;6.978;2023-04-27T09:36:35;101532.47;;;15.62;32.05
20825;BME280;10573;50.936;6.978;2023-04-27T09:39:03;101523.72;;;18.28;29.38
20825;BME280;10573;50.936;6.978;2023-04-27T09:41:30;101533.09;;;18.59;28.83
20825;BME280;10573;50.936;6.978;2023-04-27T09:43:55;101521.97;;;18.75;29.11
20825;BME280;10573;50.936;6.978;2023-04-27T09:46:22;101521.56;;;18.95;28.86
20825;BME280;10573;50.936;6.978;2023-04-27T09:48:48;101515.69;;;19.21;28.13
20825;BME280;10573;50.936;6.978;2023-04-27T09:51:14;101520.59;;;19.11;27.54
20825;BME280;10573;50.936;6.978;2023-04-27T09:53:50;101516.63;;;18.42;28.54
20825;BME280;10573;50.936;6.978;2023-04-27T10:06:56;101506.13;;;20.23;27.07
20825;BME280;10573;50.936;6.978;2023-04-27T10:09:23;101511.06;;;19.98;26.59
20825;BME280;10573;50.936;6.978;2023-04-27T10:11:49;101506.31;;;20.07;26.09
20825;BME280;10573;50.936;6.978;2023-04-27T10:14:19;101502.00;;;20.49;26.46
20825;BME280;10573;50.936;6.978;2023-04-27T10:16:45;101486.66;;;21.20;25.52
20825;BME280;10573;50.936;6.978;2023-04-27T10:19:11;101492.44;;;20.52;26.19
20825;BME280;10573;50.936;6.978;2023-04-27T10:21:37;101488.47;;;18.47;28.09
20825;BME280;10573;50.936;6.978;2023-04-27T10:24:06;101484.66;;;20.10;26.61
20825;BME280;10573;50.936;6.978;2023-04-27T10:26:32;101480.66;;;19.60;26.50
20825;BME280;10573;50.936;6.978;2023-04-27T10:29:07;101479.41;;;20.31;25.84
20825;BME280;10573;50.936;6.978;2023-04-27T10:31:33;101482.94;;;19.71;26.53
20825;BME280;10573;50.936;6.978;2023-04-27T10:34:05;101474.91;;;20.44;25.82
20825;BME280;10573;50.936;6.978;2023-04-27T10:36:34;101478.94;;;19.59;27.22
20825;BME280;10573;50.936;6.978;2023-04-27T10:39:01;101475.09;;;17.38;29.31
20825;BME280;10573;50.936;6.978;2023-04-27T10:41:32;101469.09;;;18.24;28.53
20825;BME280;10573;50.936;6.978;2023-04-27T10:44:12;101471.16;;;17.33;30.39
20825;BME280;10573;50.936;6.978;2023-04-27T10:46:38;101472.06;;;18.54;28.27
20825;BME280;10573;50.936;6.978;2023-04-27T10:49:13;101466.13;;;17.36;29.96
20825;BME280;10573;50.936;6.978;2023-04-27T10:51:39;101467.19;;;18.95;28.95
20825;BME280;10573;50.936;6.978;2023-04-27T10:54:05;101467.19;;;19.95;27.08
20825;BME280;10573;50.936;6.978;2023-04-27T10:56:31;101455.81;;;18.90;27.98
20825;BME280;10573;50.936;6.978;2023-04-27T10:59:00;101459.78;;;20.10;27.25
20825;BME280;10573;50.936;6.978;2023-04-27T11:01:26;101466.88;;;18.19;28.87
20825;BME280;10573;50.936;6.978;2023-04-27T11:03:54;101456.91;;;20.19;27.73
20825;BME280;10573;50.936;6.978;2023-04-27T11:06:19;101454.31;;;20.84;25.93
20825;BME280;10573;50.936;6.978;2023-04-27T11:08:44;101454.25;;;21.64;24.93
20825;BME280;10573;50.936;6.978;2023-04-27T11:11:12;101449.44;;;21.07;25.10
20825;BME280;10573;50.936;6.978;2023-04-27T11:13:38;101447.69;;;21.50;24.46
20825;BME280;10573;50.936;6.978;2023-04-27T11:16:03;101448.50;;;22.00;24.55
20825;BME280;10573;50.936;6.978;2023-04-27T11:18:29;101449.06;;;21.89;24.70
20825;BME280;10573;50.936;6.978;2023-04-27T11:21:11;101441.00;;;21.16;24.63
20825;BME280;10573;50.936;6.978;2023-04-27T11:23:37;101436.38;;;21.73;23.69
20825;BME280;10573;50.936;6.978;2023-04-27T11:26:13;101433.00;;;21.77;24.45
20825;BME280;10573;50.936;6.978;2023-04-27T11:28:40;101427.31;;;22.34;24.02
20825;BME280;10573;50.936;6.978;2023-04-27T11:31:06;101434.22;;;22.45;23.77
20825;BME280;10573;50.936;6.978;2023-04-27T11:33:31;101430.47;;;22.24;24.35
20825;BME280;10573;50.936;6.978;2023-04-27T11:35:57;101433.69;;;22.76;22.89
20825;BME280;10573;50.936;6.978;2023-04-27T11:38:22;101431.22;;;22.46;23.39
20825;BME280;10573;50.936;6.978;2023-04-27T11:41:04;101422.59;;;22.28;23.80
20825;BME280;10573;50.936;6.978;2023-04-27T11:43:30;101413.06;;;23.33;22.94
20825;BME280;10573;50.936;6.978;2023-04-27T11:45:56;101421.16;;;23.07;22.75
20825;BME280;10573;50.936;6.978;2023-04-27T11:48:23;101427.25;;;22.69;22.60
20825;BME280;10573;50.936;6.978;2023-04-27T11:50:48;101422.53;;;22.15;23.74
20825;BME280;10573;50.936;6.978;2023-04-27T11:53:14;101412.06;;;22.65;23.62
20825;BME280;10573;50.936;6.978;2023-04-27T11:55:40;101404.91;;;23.44;22.70
20825;BME280;10573;50.936;6.978;2023-04-27T11:58:06;101406.13;;;22.75;23.01
20825;BME280;10573;50.936;6.978;2023-04-27T12:00:31;101413.78;;;22.66;23.01
20825;BME280;10573;50.936;6.978;2023-04-27T12:02:57;101408.59;;;22.01;24.32
20825;BME280;10573;50.936;6.978;2023-04-27T12:05:22;101399.91;;;21.48;24.68
20825;BME280;10573;50.936;6.978;2023-04-27T12:07:47;101401.13;;;22.43;23.79
20825;BME280;10573;50.936;6.978;2023-04-27T12:10:13;101402.38;;;21.99;24.40
20825;BME280;10573;50.936;6.978;2023-04-27T12:12:38;101402.00;;;22.09;23.78
20825;BME280;10573;50.936;6.978;2023-04-27T12:15:04;101396.84;;;21.99;23.57
20825;BME280;10573;50.936;6.978;2023-04-27T12:17:29;101395.44;;;22.78;24.04
20825;BME280;10573;50.936;6.978;2023-04-27T12:19:55;101401.41;;;22.62;22.91
20825;BME280;10573;50.936;6.978;2023-04-27T12:22:20;101397.78;;;22.61;23.20
20825;BME280;10573;50.936;6.978;2023-04-27T12:24:46;101398.25;;;23.66;22.07
20825;BME280;10573;50.936;6.978;2023-04-27T12:27:11;101389.50;;;22.95;22.69
20825;BME280;10573;50.936;6.978;2023-04-27T12:29:37;101383.94;;;22.82;23.00
20825;BME280;10573;50.936;6.978;2023-04-27T12:32:03;101383.22;;;24.00;21.78
20825;BME280;10573;50.936;6.978;2023-04-27T12:34:28;101378.81;;;23.32;21.84
20825;BME280;10573;50.936;6.978;2023-04-27T12:36:54;101386.50;;;23.63;22.93
20825;BME280;10573;50.936;6.978;2023-04-27T12:39:21;101377.31;;;25.93;19.60
20825;BME280;10573;50.936;6.978;2023-04-27T12:41:48;101375.78;;;26.46;19.01
20825;BME280;10573;50.936;6.978;2023-04-27T12:44:15;101376.09;;;26.08;19.12
20825;BME280;10573;50.936;6.978;2023-04-27T12:46:41;101375.84;;;25.91;19.75
20825;BME280;10573;50.936;6.978;2023-04-27T12:49:08;101379.56;;;27.13;19.33
20825;BME280;10573;50.936;6.978;2023-04-27T12:51:34;101377.72;;;28.13;17.63
20825;BME280;10573;50.936;6.978;2023-04-27T12:54:01;101379.00;;;25.94;19.26
20825;BME280;10573;50.936;6.978;2023-04-27T12:56:27;101375.66;;;25.23;19.56
20825;BME280;10573;50.936;6.978;2023-04-27T12:58:53;101378.53;;;24.85;20.12